sensor_id;sensor_type;location;lat;lon;timestamp;P1;durP1;ratioP1;P2;durP2;ratioP2
71836;SDS011;59686;51.716;7.016;2023-07-13T00:00:41;2.15;;;1.73;;
71836;SDS011;59686;51.716;7.016;2023-07-13T00:03:07;3.35;;;1.85;;
71836;SDS011;59686;51.716;7.016;2023-07-13T00:05:32;4.07;;;1.90;;
71836;SDS011;59686;51.716;7.016;2023-07-13T00:07:58;2.88;;;1.60;;
71836;SDS011;59686;51.716;7.016;2023-07-13T00:10:24;3.10;;;1.80;;
71836;SDS011;59686;51.716;7.016;2023-07-13T00:12:51;2.20;;;1.50;;
71836;SDS011;59686;51.716;7.016;2023-07-13T00:15:21;2.83;;;1.63;;
71836;SDS011;59686;51.716;7.016;2023-07-13T00:17:49;3.35;;;1.70;;
71836;SDS011;59686;51.716;7.016;2023-07-13T00:20:16;2.38;;;1.73;;
71836;SDS011;59686;51.716;7.016;2023-07-13T00:22:42;2.53;;;1.70;;
71836;SDS011;59686;51.716;7.016;2023-07-13T00:25:09;2.10;;;1.73;;
71836;SDS011;59686;51.716;7.016;2023-07-13T00:27:36;4.30;;;1.92;;
71836;SDS011;59686;51.716;7.016;2023-07-13T00:30:02;2.38;;;1.55;;
71836;SDS011;59686;51.716;7.016;2023-07-13T00:32:28;3.10;;;1.80;;
71836;SDS011;59686;51.716;7.016;2023-07-13T00:34:54;2.88;;;1.60;;
71836;SDS011;59686;51.716;7.016;2023-07-13T00:37:21;1.70;;;1.60;;
71836;SDS011;59686;51.716;7.016;2023-07-13T00:39:47;3.05;;;1.88;;
71836;SDS011;59686;51.716;7.016;2023-07-13T00:42:14;2.33;;;1.70;;
71836;SDS011;59686;51.716;7.016;2023-07-13T00:44:40;1.52;;;1.42;;
71836;SDS011;59686;51.716;7.016;2023-07-13T00:47:06;2.63;;;1.80;;
71836;SDS011;59686;51.716;7.016;2023-07-13T00:49:33;2.35;;;1.80;;
71836;SDS011;59686;51.716;7.016;2023-07-13T00:52:07;2.60;;;1.75;;
71836;SDS011;59686;51.716;7.016;2023-07-13T00:54:41;2.50;;;1.70;;
71836;SDS011;59686;51.716;7.016;2023-07-13T00:57:11;3.13;;;1.50;;
71836;SDS011;59686;51.716;7.016;2023-07-13T00:59:41;3.55;;;1.90;;
71836;SDS011;59686;51.716;7.016;2023-07-13T01:02:15;2.13;;;1.67;;
71836;SDS011;59686;51.716;7.016;2023-07-13T01:04:41;3.67;;;1.80;;
71836;SDS011;59686;51.716;7.016;2023-07-13T01:07:09;3.70;;;1.88;;
71836;SDS011;59686;51.716;7.016;2023-07-13T01:09:35;4.18;;;1.80;;
71836;SDS011;59686;51.716;7.016;2023-07-13T01:12:01;3.00;;;2.00;;
71836;SDS011;59686;51.716;7.016;2023-07-13T01:14:28;3.25;;;1.92;;
71836;SDS011;59686;51.716;7.016;2023-07-13T01:16:54;2.05;;;1.50;;
71836;SDS011;59686;51.716;7.016;2023-07-13T01:21:55;2.45;;;1.63;;
71836;SDS011;59686;51.716;7.016;2023-07-13T01:24:20;3.35;;;1.80;;
71836;SDS011;59686;51.716;7.016;2023-07-13T01:26:46;3.40;;;1.63;;
71836;SDS011;59686;51.716;7.016;2023-07-13T01:29:12;2.40;;;1.70;;
71836;SDS011;59686;51.716;7.016;2023-07-13T01:31:37;2.85;;;1.73;;
71836;SDS011;59686;51.716;7.016;2023-07-13T01:34:03;3.17;;;1.65;;
71836;SDS011;59686;51.716;7.016;2023-07-13T01:36:30;3.53;;;1.75;;
71836;SDS011;59686;51.716;7.016;2023-07-13T01:38:57;4.55;;;1.90;;
71836;SDS011;59686;51.716;7.016;2023-07-13T01:41:22;3.10;;;1.58;;
71836;SDS011;59686;51.716;7.016;2023-07-13T01:43:48;3.10;;;1.90;;
71836;SDS011;59686;51.716;7.016;2023-07-13T01:46:14;2.65;;;1.50;;
71836;SDS011;59686;51.716;7.016;2023-07-13T01:48:39;3.42;;;1.88;;
71836;SDS011;59686;51.716;7.016;2023-07-13T01:51:05;2.60;;;1.80;;
71836;SDS011;59686;51.716;7.016;2023-07-13T01:53:31;1.88;;;1.52;;
71836;SDS011;59686;51.716;7.016;2023-07-13T01:55:56;3.92;;;1.85;;
71836;SDS011;59686;51.716;7.016;2023-07-13T01:58:22;3.03;;;1.70;;
71836;SDS011;59686;51.716;7.016;2023-07-13T02:00:48;3.70;;;1.75;;
71836;SDS011;59686;51.716;7.016;2023-07-13T02:03:15;3.53;;;1.70;;
71836;SDS011;59686;51.716;7.016;2023-07-13T02:05:43;2.67;;;1.70;;
71836;SDS011;59686;51.716;7.016;2023-07-13T02:08:09;2.55;;;1.52;;
71836;SDS011;59686;51.716;7.016;2023-07-13T02:10:36;5.28;;;1.80;;
71836;SDS011;59686;51.716;7.016;2023-07-13T02:13:05;3.15;;;1.65;;
71836;SDS011;59686;51.716;7.016;2023-07-13T02:15:32;3.50;;;1.60;;
71836;SDS011;59686;51.716;7.016;2023-07-13T02:17:57;1.60;;;1.35;;
71836;SDS011;59686;51.716;7.016;2023-07-13T02:20:24;3.92;;;1.70;;
71836;SDS011;59686;51.716;7.016;2023-07-13T02:22:51;4.00;;;1.67;;
71836;SDS011;59686;51.716;7.016;2023-07-13T02:25:17;3.63;;;1.80;;
71836;SDS011;59686;51.716;7.016;2023-07-13T02:27:42;3.22;;;1.67;;
71836;SDS011;59686;51.716;7.016;2023-07-13T02:30:08;4.30;;;1.83;;
71836;SDS011;59686;51.716;7.016;2023-07-13T02:32:35;3.55;;;1.60;;
71836;SDS011;59686;51.716;7.016;2023-07-13T02:35:01;4.00;;;1.50;;
71836;SDS011;59686;51.716;7.016;2023-07-13T02:37:28;2.95;;;1.75;;
71836;SDS011;59686;51.716;7.016;2023-07-13T02:39:54;3.10;;;1.67;;
71836;SDS011;59686;51.716;7.016;2023-07-13T02:42:20;3.08;;;1.60;;
71836;SDS011;59686;51.716;7.016;2023-07-13T02:44:46;3.13;;;1.63;;
71836;SDS011;59686;51.716;7.016;2023-07-13T02:47:12;2.63;;;1.63;;
71836;SDS011;59686;51.716;7.016;2023-07-13T02:49:38;2.28;;;1.40;;
71836;SDS011;59686;51.716;7.016;2023-07-13T02:52:04;3.05;;;1.45;;
71836;SDS011;59686;51.716;7.016;2023-07-13T02:54:30;2.00;;;1.25;;
71836;SDS011;59686;51.716;7.016;2023-07-13T02:56:55;4.50;;;1.63;;
71836;SDS011;59686;51.716;7.016;2023-07-13T02:59:21;3.05;;;1.50;;
71836;SDS011;59686;51.716;7.016;2023-07-13T03:01:47;2.70;;;1.58;;
71836;SDS011;59686;51.716;7.016;2023-07-13T03:04:13;5.43;;;1.63;;
71836;SDS011;59686;51.716;7.016;2023-07-13T03:06:38;3.65;;;1.42;;
71836;SDS011;59686;51.716;7.016;2023-07-13T03:09:04;3.05;;;1.30;;
71836;SDS011;59686;51.716;7.016;2023-07-13T03:11:30;2.22;;;1.45;;
71836;SDS011;59686;51.716;7.016;2023-07-13T03:13:56;2.47;;;1.50;;
71836;SDS011;59686;51.716;7.016;2023-07-13T03:16:22;3.70;;;1.60;;
71836;SDS011;59686;51.716;7.016;2023-07-13T03:18:48;2.40;;;1.40;;
71836;SDS011;59686;51.716;7.016;2023-07-13T03:21:14;3.22;;;1.77;;
71836;SDS011;59686;51.716;7.016;2023-07-13T03:23:40;1.95;;;1.40;;
71836;SDS011;59686;51.716;7.016;2023-07-13T03:26:07;4.80;;;1.73;;
71836;SDS011;59686;51.716;7.016;2023-07-13T03:28:35;3.03;;;1.55;;
71836;SDS011;59686;51.716;7.016;2023-07-13T03:31:02;3.75;;;1.80;;
71836;SDS011;59686;51.716;7.016;2023-07-13T03:33:29;3.00;;;1.75;;
71836;SDS011;59686;51.716;7.016;2023-07-13T03:35:55;2.78;;;1.50;;
71836;SDS011;59686;51.716;7.016;2023-07-13T03:38:21;2.45;;;1.20;;
71836;SDS011;59686;51.716;7.016;2023-07-13T03:40:47;3.13;;;1.20;;
71836;SDS011;59686;51.716;7.016;2023-07-13T03:43:12;2.83;;;1.63;;
71836;SDS011;59686;51.716;7.016;2023-07-13T03:45:38;3.97;;;1.45;;
71836;SDS011;59686;51.716;7.016;2023-07-13T03:48:04;4.13;;;1.65;;
71836;SDS011;59686;51.716;7.016;2023-07-13T03:50:30;4.25;;;1.73;;
71836;SDS011;59686;51.716;7.016;2023-07-13T03:52:57;1.95;;;1.52;;
71836;SDS011;59686;51.716;7.016;2023-07-13T03:55:23;2.15;;;1.50;;
71836;SDS011;59686;51.716;7.016;2023-07-13T03:57:59;3.15;;;1.58;;
71836;SDS011;59686;51.716;7.016;2023-07-13T04:00:45;2.60;;;1.40;;
71836;SDS011;59686;51.716;7.016;2023-07-13T04:03:11;2.65;;;1.40;;
71836;SDS011;59686;51.716;7.016;2023-07-13T04:05:36;2.17;;;1.50;;
71836;SDS011;59686;51.716;7.016;2023-07-13T04:08:05;3.53;;;1.90;;
71836;SDS011;59686;51.716;7.016;2023-07-13T04:10:31;5.00;;;1.60;;
71836;SDS011;59686;51.716;7.016;2023-07-13T04:12:57;1.63;;;1.35;;
71836;SDS011;59686;51.716;7.016;2023-07-13T04:15:22;3.55;;;1.75;;
71836;SDS011;59686;51.716;7.016;2023-07-13T04:17:48;3.78;;;1.42;;
71836;SDS011;59686;51.716;7.016;2023-07-13T04:20:14;2.47;;;1.48;;
71836;SDS011;59686;51.716;7.016;2023-07-13T04:22:39;2.40;;;1.40;;
71836;SDS011;59686;51.716;7.016;2023-07-13T04:25:05;3.28;;;1.40;;
71836;SDS011;59686;51.716;7.016;2023-07-13T04:27:31;4.15;;;1.63;;
71836;SDS011;59686;51.716;7.016;2023-07-13T04:29:57;2.75;;;1.55;;
71836;SDS011;59686;51.716;7.016;2023-07-13T04:32:23;3.20;;;1.40;;
71836;SDS011;59686;51.716;7.016;2023-07-13T04:34:48;2.72;;;1.42;;
71836;SDS011;59686;51.716;7.016;2023-07-13T04:37:17;3.28;;;1.42;;
71836;SDS011;59686;51.716;7.016;2023-07-13T04:39:42;3.40;;;1.60;;
71836;SDS011;59686;51.716;7.016;2023-07-13T04:42:08;2.22;;;1.40;;
71836;SDS011;59686;51.716;7.016;2023-07-13T04:44:34;3.33;;;1.70;;
71836;SDS011;59686;51.716;7.016;2023-07-13T04:46:59;3.67;;;1.70;;
71836;SDS011;59686;51.716;7.016;2023-07-13T04:49:26;2.67;;;1.65;;
71836;SDS011;59686;51.716;7.016;2023-07-13T04:51:52;3.28;;;1.65;;
71836;SDS011;59686;51.716;7.016;2023-07-13T04:54:17;3.40;;;1.50;;
71836;SDS011;59686;51.716;7.016;2023-07-13T04:56:43;2.03;;;1.40;;
71836;SDS011;59686;51.716;7.016;2023-07-13T04:59:09;5.38;;;1.80;;
71836;SDS011;59686;51.716;7.016;2023-07-13T05:01:34;4.55;;;1.70;;
71836;SDS011;59686;51.716;7.016;2023-07-13T05:04:01;2.75;;;1.38;;
71836;SDS011;59686;51.716;7.016;2023-07-13T05:06:27;4.10;;;1.77;;
71836;SDS011;59686;51.716;7.016;2023-07-13T05:08:53;2.80;;;1.67;;
71836;SDS011;59686;51.716;7.016;2023-07-13T05:11:19;4.63;;;1.60;;
71836;SDS011;59686;51.716;7.016;2023-07-13T05:13:44;2.92;;;1.60;;
71836;SDS011;59686;51.716;7.016;2023-07-13T05:16:10;3.25;;;1.58;;
71836;SDS011;59686;51.716;7.016;2023-07-13T05:18:36;3.85;;;1.50;;
71836;SDS011;59686;51.716;7.016;2023-07-13T05:21:02;2.30;;;1.40;;
71836;SDS011;59686;51.716;7.016;2023-07-13T05:23:31;3.65;;;1.92;;
71836;SDS011;59686;51.716;7.016;2023-07-13T05:25:57;3.83;;;1.60;;
71836;SDS011;59686;51.716;7.016;2023-07-13T05:28:23;5.32;;;1.55;;
71836;SDS011;59686;51.716;7.016;2023-07-13T05:30:49;2.63;;;1.63;;
71836;SDS011;59686;51.716;7.016;2023-07-13T05:33:15;2.97;;;1.50;;
71836;SDS011;59686;51.716;7.016;2023-07-13T05:35:41;4.07;;;1.85;;
71836;SDS011;59686;51.716;7.016;2023-07-13T05:38:07;3.15;;;1.70;;
71836;SDS011;59686;51.716;7.016;2023-07-13T05:40:33;3.42;;;1.50;;
71836;SDS011;59686;51.716;7.016;2023-07-13T05:42:59;2.88;;;1.65;;
71836;SDS011;59686;51.716;7.016;2023-07-13T05:45:24;3.72;;;1.75;;
71836;SDS011;59686;51.716;7.016;2023-07-13T05:47:51;3.13;;;1.60;;
71836;SDS011;59686;51.716;7.016;2023-07-13T05:50:18;5.60;;;1.70;;
71836;SDS011;59686;51.716;7.016;2023-07-13T05:52:43;4.20;;;1.98;;
71836;SDS011;59686;51.716;7.016;2023-07-13T05:55:09;3.83;;;1.70;;
71836;SDS011;59686;51.716;7.016;2023-07-13T05:57:35;4.70;;;1.92;;
71836;SDS011;59686;51.716;7.016;2023-07-13T06:00:00;4.50;;;1.70;;
71836;SDS011;59686;51.716;7.016;2023-07-13T06:02:27;4.47;;;2.00;;
71836;SDS011;59686;51.716;7.016;2023-07-13T06:04:59;4.60;;;1.63;;
71836;SDS011;59686;51.716;7.016;2023-07-13T06:07:24;3.72;;;1.73;;
71836;SDS011;59686;51.716;7.016;2023-07-13T06:09:50;4.63;;;1.65;;
71836;SDS011;59686;51.716;7.016;2023-07-13T06:12:16;3.90;;;2.00;;
71836;SDS011;59686;51.716;7.016;2023-07-13T06:14:42;4.47;;;2.00;;
71836;SDS011;59686;51.716;7.016;2023-07-13T06:17:08;5.50;;;2.00;;
71836;SDS011;59686;51.716;7.016;2023-07-13T06:19:34;4.13;;;1.67;;
71836;SDS011;59686;51.716;7.016;2023-07-13T06:21:59;4.68;;;1.70;;
71836;SDS011;59686;51.716;7.016;2023-07-13T06:24:25;3.60;;;1.88;;
71836;SDS011;59686;51.716;7.016;2023-07-13T06:26:51;6.55;;;2.30;;
71836;SDS011;59686;51.716;7.016;2023-07-13T06:29:17;4.95;;;2.13;;
71836;SDS011;59686;51.716;7.016;2023-07-13T06:31:43;4.88;;;2.22;;
71836;SDS011;59686;51.716;7.016;2023-07-13T06:34:08;5.97;;;2.25;;
71836;SDS011;59686;51.716;7.016;2023-07-13T06:36:34;5.18;;;2.13;;
71836;SDS011;59686;51.716;7.016;2023-07-13T06:39:01;7.35;;;2.60;;
71836;SDS011;59686;51.716;7.016;2023-07-13T06:41:27;6.38;;;2.72;;
71836;SDS011;59686;51.716;7.016;2023-07-13T06:43:53;7.25;;;2.65;;
71836;SDS011;59686;51.716;7.016;2023-07-13T06:46:22;4.63;;;2.30;;
71836;SDS011;59686;51.716;7.016;2023-07-13T06:48:48;6.20;;;2.65;;
71836;SDS011;59686;51.716;7.016;2023-07-13T06:51:14;6.53;;;2.40;;
71836;SDS011;59686;51.716;7.016;2023-07-13T06:53:40;7.50;;;2.90;;
71836;SDS011;59686;51.716;7.016;2023-07-13T06:56:05;7.15;;;2.75;;
71836;SDS011;59686;51.716;7.016;2023-07-13T06:58:33;5.68;;;2.58;;
71836;SDS011;59686;51.716;7.016;2023-07-13T07:00:59;8.48;;;2.95;;
71836;SDS011;59686;51.716;7.016;2023-07-13T07:03:25;5.75;;;2.63;;
71836;SDS011;59686;51.716;7.016;2023-07-13T07:05:50;5.63;;;2.53;;
71836;SDS011;59686;51.716;7.016;2023-07-13T07:08:16;6.95;;;3.17;;
71836;SDS011;59686;51.716;7.016;2023-07-13T07:10:42;7.53;;;3.22;;
71836;SDS011;59686;51.716;7.016;2023-07-13T07:13:08;5.97;;;3.00;;
71836;SDS011;59686;51.716;7.016;2023-07-13T07:15:34;5.32;;;2.95;;
71836;SDS011;59686;51.716;7.016;2023-07-13T07:18:02;10.63;;;3.38;;
71836;SDS011;59686;51.716;7.016;2023-07-13T07:20:29;8.13;;;3.38;;
71836;SDS011;59686;51.716;7.016;2023-07-13T07:22:55;8.20;;;3.20;;
71836;SDS011;59686;51.716;7.016;2023-07-13T07:25:21;6.72;;;3.10;;
71836;SDS011;59686;51.716;7.016;2023-07-13T07:27:47;8.82;;;3.22;;
71836;SDS011;59686;51.716;7.016;2023-07-13T07:30:13;4.70;;;2.88;;
71836;SDS011;59686;51.716;7.016;2023-07-13T07:32:38;5.47;;;2.70;;
71836;SDS011;59686;51.716;7.016;2023-07-13T07:35:04;6.28;;;3.13;;
71836;SDS011;59686;51.716;7.016;2023-07-13T07:37:30;7.25;;;3.25;;
71836;SDS011;59686;51.716;7.016;2023-07-13T07:39:58;6.03;;;3.10;;
71836;SDS011;59686;51.716;7.016;2023-07-13T07:42:24;6.85;;;3.30;;
71836;SDS011;59686;51.716;7.016;2023-07-13T07:44:50;6.65;;;2.90;;
71836;SDS011;59686;51.716;7.016;2023-07-13T07:47:16;8.00;;;3.50;;
71836;SDS011;59686;51.716;7.016;2023-07-13T07:49:42;9.85;;;3.70;;
71836;SDS011;59686;51.716;7.016;2023-07-13T07:52:07;7.45;;;2.95;;
71836;SDS011;59686;51.716;7.016;2023-07-13T07:54:33;7.20;;;3.35;;
71836;SDS011;59686;51.716;7.016;2023-07-13T07:56:59;7.22;;;3.15;;
71836;SDS011;59686;51.716;7.016;2023-07-13T07:59:24;6.35;;;3.45;;
71836;SDS011;59686;51.716;7.016;2023-07-13T08:01:50;7.43;;;3.00;;
71836;SDS011;59686;51.716;7.016;2023-07-13T08:04:16;8.90;;;3.60;;
71836;SDS011;59686;51.716;7.016;2023-07-13T08:06:42;12.15;;;3.83;;
71836;SDS011;59686;51.716;7.016;2023-07-13T08:09:07;11.52;;;3.90;;
71836;SDS011;59686;51.716;7.016;2023-07-13T08:11:33;7.85;;;3.13;;
71836;SDS011;59686;51.716;7.016;2023-07-13T08:14:00;7.38;;;3.10;;
71836;SDS011;59686;51.716;7.016;2023-07-13T08:16:25;6.93;;;2.90;;
71836;SDS011;59686;51.716;7.016;2023-07-13T08:18:51;11.27;;;3.53;;
71836;SDS011;59686;51.716;7.016;2023-07-13T08:21:17;10.60;;;3.70;;
71836;SDS011;59686;51.716;7.016;2023-07-13T08:23:45;10.13;;;3.50;;
71836;SDS011;59686;51.716;7.016;2023-07-13T08:26:11;8.65;;;3.20;;
71836;SDS011;59686;51.716;7.016;2023-07-13T08:28:36;8.38;;;3.17;;
71836;SDS011;59686;51.716;7.016;2023-07-13T08:31:03;8.20;;;3.22;;
71836;SDS011;59686;51.716;7.016;2023-07-13T08:33:30;46.53;;;6.10;;
71836;SDS011;59686;51.716;7.016;2023-07-13T08:35:56;38.10;;;5.97;;
71836;SDS011;59686;51.716;7.016;2023-07-13T08:38:22;43.50;;;5.80;;
71836;SDS011;59686;51.716;7.016;2023-07-13T08:40:52;37.30;;;5.63;;
71836;SDS011;59686;51.716;7.016;2023-07-13T08:43:22;25.77;;;4.90;;
71836;SDS011;59686;51.716;7.016;2023-07-13T08:45:54;24.42;;;5.22;;
71836;SDS011;59686;51.716;7.016;2023-07-13T08:48:44;29.80;;;4.80;;
71836;SDS011;59686;51.716;7.016;2023-07-13T08:54:07;19.77;;;4.15;;
71836;SDS011;59686;51.716;7.016;2023-07-13T08:56:41;14.27;;;3.97;;
71836;SDS011;59686;51.716;7.016;2023-07-13T08:59:11;17.42;;;3.35;;
71836;SDS011;59686;51.716;7.016;2023-07-13T09:04:25;13.23;;;3.47;;
71836;SDS011;59686;51.716;7.016;2023-07-13T09:15:02;9.55;;;2.80;;
71836;SDS011;59686;51.716;7.016;2023-07-13T09:17:39;10.35;;;3.47;;
71836;SDS011;59686;51.716;7.016;2023-07-13T09:22:56;10.98;;;2.85;;
71836;SDS011;59686;51.716;7.016;2023-07-13T09:25:30;9.90;;;3.13;;
71836;SDS011;59686;51.716;7.016;2023-07-13T09:28:15;10.55;;;3.53;;
71836;SDS011;59686;51.716;7.016;2023-07-13T09:33:30;5.95;;;2.97;;
71836;SDS011;59686;51.716;7.016;2023-07-13T09:35:59;7.63;;;3.17;;
71836;SDS011;59686;51.716;7.016;2023-07-13T09:38:26;7.85;;;2.97;;
71836;SDS011;59686;51.716;7.016;2023-07-13T09:43:35;5.05;;;2.40;;
71836;SDS011;59686;51.716;7.016;2023-07-13T09:46:02;6.30;;;2.90;;
71836;SDS011;59686;51.716;7.016;2023-07-13T09:48:34;6.45;;;2.80;;
71836;SDS011;59686;51.716;7.016;2023-07-13T09:51:14;5.30;;;2.60;;
71836;SDS011;59686;51.716;7.016;2023-07-13T09:53:42;9.43;;;2.80;;
71836;SDS011;59686;51.716;7.016;2023-07-13T09:56:28;4.47;;;2.72;;
71836;SDS011;59686;51.716;7.016;2023-07-13T09:58:58;6.28;;;2.78;;
71836;SDS011;59686;51.716;7.016;2023-07-13T10:01:35;6.78;;;3.15;;
71836;SDS011;59686;51.716;7.016;2023-07-13T10:04:09;7.13;;;2.90;;
71836;SDS011;59686;51.716;7.016;2023-07-13T10:06:40;7.18;;;3.20;;
71836;SDS011;59686;51.716;7.016;2023-07-13T10:09:08;7.53;;;2.85;;
71836;SDS011;59686;51.716;7.016;2023-07-13T10:11:35;5.10;;;2.75;;
71836;SDS011;59686;51.716;7.016;2023-07-13T10:14:15;7.25;;;2.58;;
71836;SDS011;59686;51.716;7.016;2023-07-13T10:16:48;6.43;;;2.35;;
71836;SDS011;59686;51.716;7.016;2023-07-13T10:19:23;5.78;;;2.97;;
71836;SDS011;59686;51.716;7.016;2023-07-13T10:21:53;7.25;;;3.00;;
71836;SDS011;59686;51.716;7.016;2023-07-13T10:24:22;6.40;;;2.78;;
71836;SDS011;59686;51.716;7.016;2023-07-13T10:26:52;5.50;;;2.53;;
71836;SDS011;59686;51.716;7.016;2023-07-13T10:29:20;5.47;;;2.38;;
71836;SDS011;59686;51.716;7.016;2023-07-13T10:31:49;4.47;;;2.92;;
71836;SDS011;59686;51.716;7.016;2023-07-13T10:34:15;6.10;;;2.72;;
71836;SDS011;59686;51.716;7.016;2023-07-13T10:36:47;6.18;;;2.80;;
71836;SDS011;59686;51.716;7.016;2023-07-13T10:39:17;4.72;;;2.47;;
71836;SDS011;59686;51.716;7.016;2023-07-13T10:41:47;6.65;;;2.60;;
71836;SDS011;59686;51.716;7.016;2023-07-13T10:44:37;6.05;;;2.70;;
71836;SDS011;59686;51.716;7.016;2023-07-13T10:47:04;5.22;;;2.35;;
71836;SDS011;59686;51.716;7.016;2023-07-13T10:49:33;5.40;;;2.70;;
71836;SDS011;59686;51.716;7.016;2023-07-13T10:52:00;5.65;;;2.67;;
71836;SDS011;59686;51.716;7.016;2023-07-13T10:54:33;5.03;;;2.50;;
71836;SDS011;59686;51.716;7.016;2023-07-13T10:57:14;8.27;;;2.78;;
71836;SDS011;59686;51.716;7.016;2023-07-13T11:00:30;7.72;;;2.60;;
71836;SDS011;59686;51.716;7.016;2023-07-13T11:02:42;8.75;;;3.20;;
71836;SDS011;59686;51.716;7.016;2023-07-13T11:05:25;3.83;;;2.72;;
71836;SDS011;59686;51.716;7.016;2023-07-13T11:07:52;5.82;;;2.70;;
71836;SDS011;59686;51.716;7.016;2023-07-13T11:10:48;6.80;;;2.75;;
71836;SDS011;59686;51.716;7.016;2023-07-13T11:13:57;5.78;;;2.72;;
71836;SDS011;59686;51.716;7.016;2023-07-13T11:18:49;6.20;;;2.85;;
71836;SDS011;59686;51.716;7.016;2023-07-13T11:21:23;7.00;;;3.13;;
71836;SDS011;59686;51.716;7.016;2023-07-13T11:23:53;7.45;;;2.50;;
71836;SDS011;59686;51.716;7.016;2023-07-13T11:31:42;4.75;;;2.22;;
71836;SDS011;59686;51.716;7.016;2023-07-13T11:34:16;5.05;;;2.97;;
71836;SDS011;59686;51.716;7.016;2023-07-13T11:36:47;4.32;;;2.33;;
71836;SDS011;59686;51.716;7.016;2023-07-13T11:41:46;5.97;;;2.42;;
71836;SDS011;59686;51.716;7.016;2023-07-13T11:44:18;5.60;;;2.42;;
71836;SDS011;59686;51.716;7.016;2023-07-13T11:46:52;6.00;;;2.33;;
71836;SDS011;59686;51.716;7.016;2023-07-13T11:49:21;4.88;;;2.45;;
71836;SDS011;59686;51.716;7.016;2023-07-13T11:51:48;4.82;;;2.53;;
71836;SDS011;59686;51.716;7.016;2023-07-13T11:56:48;6.38;;;2.80;;
71836;SDS011;59686;51.716;7.016;2023-07-13T11:59:14;5.82;;;2.58;;
71836;SDS011;59686;51.716;7.016;2023-07-13T12:01:46;7.40;;;2.45;;
71836;SDS011;59686;51.716;7.016;2023-07-13T12:04:33;5.70;;;2.58;;
71836;SDS011;59686;51.716;7.016;2023-07-13T12:07:06;4.82;;;2.50;;
71836;SDS011;59686;51.716;7.016;2023-07-13T12:09:39;5.03;;;1.95;;
71836;SDS011;59686;51.716;7.016;2023-07-13T12:12:10;8.57;;;2.65;;
71836;SDS011;59686;51.716;7.016;2023-07-13T12:17:23;6.55;;;2.30;;
71836;SDS011;59686;51.716;7.016;2023-07-13T12:19:50;5.40;;;2.70;;
71836;SDS011;59686;51.716;7.016;2023-07-13T12:22:18;5.60;;;2.60;;
71836;SDS011;59686;51.716;7.016;2023-07-13T12:24:46;5.88;;;2.58;;
71836;SDS011;59686;51.716;7.016;2023-07-13T12:27:24;8.77;;;2.75;;
71836;SDS011;59686;51.716;7.016;2023-07-13T12:29:59;5.07;;;2.50;;
71836;SDS011;59686;51.716;7.016;2023-07-13T12:32:30;5.80;;;2.90;;
71836;SDS011;59686;51.716;7.016;2023-07-13T12:35:01;6.53;;;2.63;;
71836;SDS011;59686;51.716;7.016;2023-07-13T12:37:41;7.30;;;2.33;;
71836;SDS011;59686;51.716;7.016;2023-07-13T12:40:18;5.85;;;2.53;;
71836;SDS011;59686;51.716;7.016;2023-07-13T12:42:49;7.90;;;2.83;;
71836;SDS011;59686;51.716;7.016;2023-07-13T12:45:18;8.68;;;2.50;;
71836;SDS011;59686;51.716;7.016;2023-07-13T12:47:50;7.43;;;3.00;;
71836;SDS011;59686;51.716;7.016;2023-07-13T12:50:20;4.07;;;2.50;;
71836;SDS011;59686;51.716;7.016;2023-07-13T12:52:51;7.75;;;2.92;;
71836;SDS011;59686;51.716;7.016;2023-07-13T12:55:20;10.60;;;4.78;;
71836;SDS011;59686;51.716;7.016;2023-07-13T12:57:50;12.60;;;4.55;;
71836;SDS011;59686;51.716;7.016;2023-07-13T13:02:52;11.25;;;4.57;;
71836;SDS011;59686;51.716;7.016;2023-07-13T13:05:24;8.00;;;4.07;;
71836;SDS011;59686;51.716;7.016;2023-07-13T13:07:51;7.57;;;4.32;;
71836;SDS011;59686;51.716;7.016;2023-07-13T13:10:17;4.97;;;3.60;;
71836;SDS011;59686;51.716;7.016;2023-07-13T13:12:43;5.72;;;3.58;;
71836;SDS011;59686;51.716;7.016;2023-07-13T13:15:09;4.72;;;3.40;;
71836;SDS011;59686;51.716;7.016;2023-07-13T13:17:36;5.20;;;2.97;;
71836;SDS011;59686;51.716;7.016;2023-07-13T13:20:16;6.13;;;2.95;;
71836;SDS011;59686;51.716;7.016;2023-07-13T13:22:45;6.25;;;2.90;;
71836;SDS011;59686;51.716;7.016;2023-07-13T13:25:11;6.00;;;3.17;;
71836;SDS011;59686;51.716;7.016;2023-07-13T13:27:37;4.72;;;3.15;;
71836;SDS011;59686;51.716;7.016;2023-07-13T13:30:16;5.13;;;3.38;;
71836;SDS011;59686;51.716;7.016;2023-07-13T13:32:44;4.13;;;3.10;;
71836;SDS011;59686;51.716;7.016;2023-07-13T13:35:15;4.95;;;3.25;;
71836;SDS011;59686;51.716;7.016;2023-07-13T13:37:42;3.65;;;2.60;;
71836;SDS011;59686;51.716;7.016;2023-07-13T13:40:16;3.90;;;2.90;;
71836;SDS011;59686;51.716;7.016;2023-07-13T13:42:51;4.47;;;2.85;;
71836;SDS011;59686;51.716;7.016;2023-07-13T13:45:17;5.85;;;3.30;;
71836;SDS011;59686;51.716;7.016;2023-07-13T13:47:45;5.47;;;3.15;;
71836;SDS011;59686;51.716;7.016;2023-07-13T13:50:14;4.32;;;2.95;;
71836;SDS011;59686;51.716;7.016;2023-07-13T13:52:43;4.45;;;2.88;;
71836;SDS011;59686;51.716;7.016;2023-07-13T13:55:14;4.18;;;3.03;;
71836;SDS011;59686;51.716;7.016;2023-07-13T13:57:47;5.03;;;2.75;;
71836;SDS011;59686;51.716;7.016;2023-07-13T14:02:46;5.55;;;3.25;;
71836;SDS011;59686;51.716;7.016;2023-07-13T14:05:18;4.13;;;2.65;;
71836;SDS011;59686;51.716;7.016;2023-07-13T14:07:47;3.13;;;2.65;;
71836;SDS011;59686;51.716;7.016;2023-07-13T14:10:14;4.80;;;2.53;;
71836;SDS011;59686;51.716;7.016;2023-07-13T14:12:42;5.68;;;2.92;;
71836;SDS011;59686;51.716;7.016;2023-07-13T14:15:21;3.00;;;2.80;;
71836;SDS011;59686;51.716;7.016;2023-07-13T14:17:53;3.20;;;2.65;;
71836;SDS011;59686;51.716;7.016;2023-07-13T14:20:20;3.72;;;2.65;;
71836;SDS011;59686;51.716;7.016;2023-07-13T14:22:49;3.53;;;2.75;;
71836;SDS011;59686;51.716;7.016;2023-07-13T14:25:16;3.92;;;2.55;;
71836;SDS011;59686;51.716;7.016;2023-07-13T14:27:43;12.25;;;3.35;;
71836;SDS011;59686;51.716;7.016;2023-07-13T14:32:39;4.97;;;2.70;;
71836;SDS011;59686;51.716;7.016;2023-07-13T14:35:05;4.07;;;2.92;;
71836;SDS011;59686;51.716;7.016;2023-07-13T14:37:31;3.63;;;3.03;;
71836;SDS011;59686;51.716;7.016;2023-07-13T14:39:58;5.93;;;2.95;;
71836;SDS011;59686;51.716;7.016;2023-07-13T14:42:24;4.55;;;3.15;;
71836;SDS011;59686;51.716;7.016;2023-07-13T14:44:50;6.57;;;3.63;;
71836;SDS011;59686;51.716;7.016;2023-07-13T14:47:16;4.30;;;3.00;;
71836;SDS011;59686;51.716;7.016;2023-07-13T14:49:43;4.88;;;3.15;;
71836;SDS011;59686;51.716;7.016;2023-07-13T14:52:11;3.70;;;3.03;;
71836;SDS011;59686;51.716;7.016;2023-07-13T14:54:42;3.17;;;2.88;;
71836;SDS011;59686;51.716;7.016;2023-07-13T14:57:10;5.15;;;3.20;;
71836;SDS011;59686;51.716;7.016;2023-07-13T14:59:41;4.70;;;3.05;;
71836;SDS011;59686;51.716;7.016;2023-07-13T15:07:11;6.45;;;2.90;;
71836;SDS011;59686;51.716;7.016;2023-07-13T15:09:38;4.30;;;2.80;;
71836;SDS011;59686;51.716;7.016;2023-07-13T15:12:04;4.82;;;3.10;;
71836;SDS011;59686;51.716;7.016;2023-07-13T15:14:30;5.70;;;2.95;;
71836;SDS011;59686;51.716;7.016;2023-07-13T15:16:57;6.05;;;3.17;;
71836;SDS011;59686;51.716;7.016;2023-07-13T15:19:23;3.78;;;3.10;;
71836;SDS011;59686;51.716;7.016;2023-07-13T15:21:51;5.03;;;3.10;;
71836;SDS011;59686;51.716;7.016;2023-07-13T15:24:19;4.13;;;3.10;;
71836;SDS011;59686;51.716;7.016;2023-07-13T15:26:46;6.03;;;2.97;;
71836;SDS011;59686;51.716;7.016;2023-07-13T15:29:14;7.15;;;2.92;;
71836;SDS011;59686;51.716;7.016;2023-07-13T15:31:41;5.82;;;3.00;;
71836;SDS011;59686;51.716;7.016;2023-07-13T15:34:16;6.32;;;3.38;;
71836;SDS011;59686;51.716;7.016;2023-07-13T15:36:45;5.78;;;3.35;;
71836;SDS011;59686;51.716;7.016;2023-07-13T15:39:15;6.50;;;3.13;;
71836;SDS011;59686;51.716;7.016;2023-07-13T15:41:44;10.68;;;3.70;;
71836;SDS011;59686;51.716;7.016;2023-07-13T15:44:31;10.88;;;3.47;;